sensor_id;sensor_type;location;lat;lon;timestamp;temperature;humidity
44900;DHT22;30628;51.188;6.770;2022-09-30T14:28:35;16.80;99.90
44900;DHT22;30628;51.188;6.770;2022-09-30T14:31:03;16.90;99.90
44900;DHT22;30628;51.188;6.770;2022-09-30T14:33:38;17.00;99.90
44900;DHT22;30628;51.188;6.770;2022-09-30T14:36:11;16.90;99.90
44900;DHT22;30628;51.188;6.770;2022-09-30T14:38:38;16.90;99.90
44900;DHT22;30628;51.188;6.770;2022-09-30T14:41:15;16.90;99.90
44900;DHT22;30628;51.188;6.770;2022-09-30T14:43:43;16.90;99.90
44900;DHT22;30628;51.188;6.770;2022-09-30T14:48:52;17.00;99.90
44900;DHT22;30628;51.188;6.770;2022-09-30T14:51:19;17.00;99.90
44900;DHT22;30628;51.188;6.770;2022-09-30T14:53:57;16.90;99.90
44900;DHT22;30628;51.188;6.770;2022-09-30T14:56:33;16.90;99.90
44900;DHT22;30628;51.188;6.770;2022-09-30T14:59:19;16.90;99.90
44900;DHT22;30628;51.188;6.770;2022-09-30T15:01:49;16.90;99.90
44900;DHT22;30628;51.188;6.770;2022-09-30T15:04:29;16.90;99.90
44900;DHT22;30628;51.188;6.770;2022-09-30T15:06:57;16.80;99.90
44900;DHT22;30628;51.188;6.770;2022-09-30T15:09:34;16.80;99.90
44900;DHT22;30628;51.188;6.770;2022-09-30T15:12:14;16.70;99.90
44900;DHT22;30628;51.188;6.770;2022-09-30T15:14:53;16.60;99.90
44900;DHT22;30628;51.188;6.770;2022-09-30T15:17:25;16.60;99.90
44900;DHT22;30628;51.188;6.770;2022-09-30T15:19:53;16.60;99.90
44900;DHT22;30628;51.188;6.770;2022-09-30T15:22:22;16.50;99.90
44900;DHT22;30628;51.188;6.770;2022-09-30T15:24:51;16.60;99.90
44900;DHT22;30628;51.188;6.770;2022-09-30T15:27:31;16.60;99.90
44900;DHT22;30628;51.188;6.770;2022-09-30T15:30:03;16.60;99.90
44900;DHT22;30628;51.188;6.770;2022-09-30T15:32:31;16.60;99.90
44900;DHT22;30628;51.188;6.770;2022-09-30T15:35:25;16.50;99.90
44900;DHT22;30628;51.188;6.770;2022-09-30T15:37:52;16.70;99.90
44900;DHT22;30628;51.188;6.770;2022-09-30T15:40:21;16.60;99.90
44900;DHT22;30628;51.188;6.770;2022-09-30T15:43:10;16.60;99.90
44900;DHT22;30628;51.188;6.770;2022-09-30T15:45:41;16.60;99.90
44900;DHT22;30628;51.188;6.770;2022-09-30T15:50:44;16.60;99.90
44900;DHT22;30628;51.188;6.770;2022-09-30T15:53:31;16.60;99.90
44900;DHT22;30628;51.188;6.770;2022-09-30T15:56:29;16.60;99.90
44900;DHT22;30628;51.188;6.770;2022-09-30T16:01:25;17.50;99.90
44900;DHT22;30628;51.188;6.770;2022-09-30T16:06:44;16.50;99.90
44900;DHT22;30628;51.188;6.770;2022-09-30T16:17:02;16.30;99.90
44900;DHT22;30628;51.188;6.770;2022-09-30T16:19:30;16.30;99.90
44900;DHT22;30628;51.188;6.770;2022-09-30T16:21:59;16.30;99.90
44900;DHT22;30628;51.188;6.770;2022-09-30T16:26:58;16.20;99.90
44900;DHT22;30628;51.188;6.770;2022-09-30T16:29:26;16.50;99.90
44900;DHT22;30628;51.188;6.770;2022-09-30T16:31:54;16.10;99.90
44900;DHT22;30628;51.188;6.770;2022-09-30T16:34:28;16.20;99.90
44900;DHT22;30628;51.188;6.770;2022-09-30T16:37:11;16.10;99.90
44900;DHT22;30628;51.188;6.770;2022-09-30T16:39:37;16.10;99.90
44900;DHT22;30628;51.188;6.770;2022-09-30T16:42:04;16.10;99.90
44900;DHT22;30628;51.188;6.770;2022-09-30T16:44:30;16.10;99.90
44900;DHT22;30628;51.188;6.770;2022-09-30T16:47:01;16.10;99.90
44900;DHT22;30628;51.188;6.770;2022-09-30T16:49:27;16.10;99.90
44900;DHT22;30628;51.188;6.770;2022-09-30T16:51:53;16.00;99.90
44900;DHT22;30628;51.188;6.770;2022-09-30T16:54:20;16.00;99.90
44900;DHT22;30628;51.188;6.770;2022-09-30T16:56:46;16.00;99.90
44900;DHT22;30628;51.188;6.770;2022-09-30T16:59:13;16.00;99.90
44900;DHT22;30628;51.188;6.770;2022-09-30T17:01:40;15.90;99.90
44900;DHT22;30628;51.188;6.770;2022-09-30T17:04:07;15.90;99.90
44900;DHT22;30628;51.188;6.770;2022-09-30T17:06:35;15.80;99.90
44900;DHT22;30628;51.188;6.770;2022-09-30T17:09:03;15.90;99.90
44900;DHT22;30628;51.188;6.770;2022-09-30T17:11:32;15.80;99.90
44900;DHT22;30628;51.188;6.770;2022-09-30T17:14:00;15.30;99.90
44900;DHT22;30628;51.188;6.770;2022-09-30T17:16:29;15.60;99.90
44900;DHT22;30628;51.188;6.770;2022-09-30T17:19:02;15.50;99.90
44900;DHT22;30628;51.188;6.770;2022-09-30T17:21:29;15.50;99.90
44900;DHT22;30628;51.188;6.770;2022-09-30T17:23:56;15.50;99.90
44900;DHT22;30628;51.188;6.770;2022-09-30T17:26:23;15.40;99.90
44900;DHT22;30628;51.188;6.770;2022-09-30T17:28:49;15.40;99.90
44900;DHT22;30628;51.188;6.770;2022-09-30T17:31:16;15.40;99.90
44900;DHT22;30628;51.188;6.770;2022-09-30T17:33:42;15.40;99.90
44900;DHT22;30628;51.188;6.770;2022-09-30T17:36:11;15.30;99.90
44900;DHT22;30628;51.188;6.770;2022-09-30T17:38:39;15.30;99.90
44900;DHT22;30628;51.188;6.770;2022-09-30T17:41:06;15.40;99.90
44900;DHT22;30628;51.188;6.770;2022-09-30T17:43:51;15.20;99.90
44900;DHT22;30628;51.188;6.770;2022-09-30T17:46:18;15.10;99.90
44900;DHT22;30628;51.188;6.770;2022-09-30T17:48:48;15.10;99.90
44900;DHT22;30628;51.188;6.770;2022-09-30T17:51:15;15.10;99.90
44900;DHT22;30628;51.188;6.770;2022-09-30T17:53:42;15.10;99.90
44900;DHT22;30628;51.188;6.770;2022-09-30T17:56:19;15.00;99.90
44900;DHT22;30628;51.188;6.770;2022-09-30T17:58:48;15.10;99.90
44900;DHT22;30628;51.188;6.770;2022-09-30T18:01:17;15.00;99.90
44900;DHT22;30628;51.188;6.770;2022-09-30T18:03:44;15.00;99.90
44900;DHT22;30628;51.188;6.770;2022-09-30T18:06:11;15.00;99.90
44900;DHT22;30628;51.188;6.770;2022-09-30T18:08:39;15.00;99.90
44900;DHT22;30628;51.188;6.770;2022-09-30T18:11:06;15.00;99.90
44900;DHT22;30628;51.188;6.770;2022-09-30T18:13:32;15.10;99.90
44900;DHT22;30628;51.188;6.770;2022-09-30T18:15:58;15.00;99.90
44900;DHT22;30628;51.188;6.770;2022-09-30T18:18:27;14.60;99.90
44900;DHT22;30628;51.188;6.770;2022-09-30T18:20:54;15.00;99.90
44900;DHT22;30628;51.188;6.770;2022-09-30T18:23:20;15.00;99.90
44900;DHT22;30628;51.188;6.770;2022-09-30T18:25:47;15.00;99.90
44900;DHT22;30628;51.188;6.770;2022-09-30T18:28:15;14.90;99.90
44900;DHT22;30628;51.188;6.770;2022-09-30T18:30:42;14.90;99.90
44900;DHT22;30628;51.188;6.770;2022-09-30T18:33:09;14.90;99.90
44900;DHT22;30628;51.188;6.770;2022-09-30T18:35:37;15.10;99.90
44900;DHT22;30628;51.188;6.770;2022-09-30T18:38:05;14.90;99.90
44900;DHT22;30628;51.188;6.770;2022-09-30T18:40:32;14.90;99.90
44900;DHT22;30628;51.188;6.770;2022-09-30T18:43:02;14.90;99.90
44900;DHT22;30628;51.188;6.770;2022-09-30T18:45:33;14.80;99.90
44900;DHT22;30628;51.188;6.770;2022-09-30T18:48:02;14.80;99.90
44900;DHT22;30628;51.188;6.770;2022-09-30T18:50:30;14.90;99.90
44900;DHT22;30628;51.188;6.770;2022-09-30T18:52:57;14.90;99.90
44900;DHT22;30628;51.188;6.770;2022-09-30T18:55:35;15.10;99.90
44900;DHT22;30628;51.188;6.770;2022-09-30T18:58:03;14.80;99.90
44900;DHT22;30628;51.188;6.770;2022-09-30T19:00:30;14.80;99.90
44900;DHT22;30628;51.188;6.770;2022-09-30T19:02:56;14.90;99.90
44900;DHT22;30628;51.188;6.770;2022-09-30T19:05:23;14.80;99.90
44900;DHT22;30628;51.188;6.770;2022-09-30T19:07:51;14.80;99.90
44900;DHT22;30628;51.188;6.770;2022-09-30T19:10:18;14.80;99.90
44900;DHT22;30628;51.188;6.770;2022-09-30T19:12:44;14.60;99.90
44900;DHT22;30628;51.188;6.770;2022-09-30T19:15:12;14.60;99.90
44900;DHT22;30628;51.188;6.770;2022-09-30T19:17:41;14.60;99.90
44900;DHT22;30628;51.188;6.770;2022-09-30T19:20:19;14.60;99.90
44900;DHT22;30628;51.188;6.770;2022-09-30T19:22:45;14.60;99.90
44900;DHT22;30628;51.188;6.770;2022-09-30T19:25:12;14.50;99.90
44900;DHT22;30628;51.188;6.770;2022-09-30T19:27:40;14.50;99.90
44900;DHT22;30628;51.188;6.770;2022-09-30T19:30:09;14.50;99.90
44900;DHT22;30628;51.188;6.770;2022-09-30T19:32:36;14.50;99.90
44900;DHT22;30628;51.188;6.770;2022-09-30T19:35:04;14.50;99.90
44900;DHT22;30628;51.188;6.770;2022-09-30T19:37:32;14.40;99.90
44900;DHT22;30628;51.188;6.770;2022-09-30T19:39:59;14.90;99.90
44900;DHT22;30628;51.188;6.770;2022-09-30T19:42:25;14.40;99.90
44900;DHT22;30628;51.188;6.770;2022-09-30T19:44:53;14.40;99.90
44900;DHT22;30628;51.188;6.770;2022-09-30T19:47:19;14.40;99.90
44900;DHT22;30628;51.188;6.770;2022-09-30T19:49:45;14.30;99.90
44900;DHT22;30628;51.188;6.770;2022-09-30T19:52:12;14.30;99.90
44900;DHT22;30628;51.188;6.770;2022-09-30T19:54:42;14.20;99.90
44900;DHT22;30628;51.188;6.770;2022-09-30T19:57:09;14.20;99.90
44900;DHT22;30628;51.188;6.770;2022-09-30T19:59:35;14.20;99.90
44900;DHT22;30628;51.188;6.770;2022-09-30T20:02:01;14.20;99.90
44900;DHT22;30628;51.188;6.770;2022-09-30T20:04:28;14.20;99.90
44900;DHT22;30628;51.188;6.770;2022-09-30T20:06:55;14.20;99.90
44900;DHT22;30628;51.188;6.770;2022-09-30T20:09:21;14.70;99.90
44900;DHT22;30628;51.188;6.770;2022-09-30T20:11:47;14.20;99.90
44900;DHT22;30628;51.188;6.770;2022-09-30T20:14:13;14.20;99.90
44900;DHT22;30628;51.188;6.770;2022-09-30T20:16:58;14.20;99.90
44900;DHT22;30628;51.188;6.770;2022-09-30T20:19:24;14.70;99.90
44900;DHT22;30628;51.188;6.770;2022-09-30T20:21:52;14.20;99.90
44900;DHT22;30628;51.188;6.770;2022-09-30T20:24:19;14.10;99.90
44900;DHT22;30628;51.188;6.770;2022-09-30T20:27:04;14.10;99.90
44900;DHT22;30628;51.188;6.770;2022-09-30T20:29:32;13.70;99.90
44900;DHT22;30628;51.188;6.770;2022-09-30T20:31:59;14.00;99.90
44900;DHT22;30628;51.188;6.770;2022-09-30T20:34:27;14.00;99.90
44900;DHT22;30628;51.188;6.770;2022-09-30T22:25:14;13.60;99.90
44900;DHT22;30628;51.188;6.770;2022-09-30T22:27:51;13.60;99.90
44900;DHT22;30628;51.188;6.770;2022-09-30T22:30:56;13.60;99.90
